Time;durP1;ratioP1;P1;durP2;ratioP2;P2;SDS_P1;SDS_P2;PMS_P1;PMS_P2;Temp;Humidity;BMP_temperature;BMP_pressure;BME280_temperature;BME280_humidity;BME280_pressure;Samples;Min_cycle;Max_cycle;Signal;HPM_P1;HPM_P2
2023/06/12 00:00:48;;;;;;;2.63;2.15;;;;;;;29.90;35.66;101463.13;4999845;28;97575;-73
2023/06/12 00:03:15;;;;;;;2.50;2.30;;;;;;;29.89;35.67;101465.03;5009757;28;96708;-73
2023/06/12 00:05:43;;;;;;;2.65;2.45;;;;;;;29.89;35.59;101466.97;5008133;28;100754;-73
2023/06/12 00:08:11;;;;;;;2.40;2.20;;;;;;;29.89;35.65;101465.03;5009299;28;97257;-73
2023/06/12 00:10:39;;;;;;;2.35;2.15;;;;;;;29.89;35.59;101461.44;5009128;28;96775;-73
2023/06/12 00:13:08;;;;;;;2.72;2.50;;;;;;;29.89;35.67;101466.97;5009294;28;96733;-73
2023/06/12 00:15:35;;;;;;;2.70;2.50;;;;;;;29.89;35.67;101472.50;5004240;28;96833;-73
2023/06/12 00:18:03;;;;;;;2.60;2.40;;;;;;;29.89;35.69;101472.50;5007463;28;96698;-73
2023/06/12 00:20:31;;;;;;;2.45;2.25;;;;;;;29.89;35.67;101464.19;5009185;28;96901;-73
2023/06/12 00:22:58;;;;;;;3.13;2.40;;;;;;;29.89;35.50;101466.97;4997532;28;97033;-73
2023/06/12 00:25:25;;;;;;;2.60;2.40;;;;;;;29.88;35.81;101468.03;5007484;28;97153;-73
2023/06/12 00:27:52;;;;;;;2.88;2.58;;;;;;;29.88;35.76;101471.66;5008404;28;97000;-73
2023/06/12 00:30:19;;;;;;;2.63;2.40;;;;;;;29.89;35.59;101475.28;5007177;28;96835;-73
2023/06/12 00:32:46;;;;;;;3.63;2.50;;;;;;;29.89;35.63;101475.28;5009016;28;96860;-73
2023/06/12 00:35:15;;;;;;;2.60;2.40;;;;;;;29.88;35.55;101465.25;5006262;28;99012;-73
2023/06/12 00:37:42;;;;;;;2.03;1.83;;;;;;;29.88;35.65;101468.88;5000927;28;96774;-73
2023/06/12 00:40:12;;;;;;;2.63;2.42;;;;;;;29.89;35.63;101478.03;5002128;28;96937;-73
2023/06/12 00:42:45;;;;;;;2.60;2.20;;;;;;;29.88;35.70;101470.81;4995476;28;96812;-73
2023/06/12 00:45:16;;;;;;;3.00;2.67;;;;;;;29.88;35.65;101470.81;5008083;28;97634;-72
2023/06/12 00:47:46;;;;;;;2.67;2.47;;;;;;;29.88;35.85;101468.03;5007085;28;97185;-73
2023/06/12 00:50:14;;;;;;;3.17;2.53;;;;;;;29.87;35.55;101464.41;5006918;28;96790;-72
2023/06/12 00:52:44;;;;;;;2.40;2.20;;;;;;;29.87;35.63;101463.56;5007811;28;96877;-73
2023/06/12 00:55:11;;;;;;;2.70;2.50;;;;;;;29.85;35.85;101465.72;5007601;28;98143;-72
2023/06/12 00:57:38;;;;;;;2.40;2.20;;;;;;;29.86;35.61;101470.19;5006700;28;98872;-73
2023/06/12 01:00:07;;;;;;;2.60;2.40;;;;;;;29.87;35.73;101463.56;5007547;28;97084;-73
2023/06/12 01:02:42;;;;;;;2.50;2.30;;;;;;;29.87;35.78;101458.03;5007164;28;96948;-73
2023/06/12 01:05:12;;;;;;;2.47;2.28;;;;;;;29.86;35.67;101467.41;5007377;28;97399;-73
2023/06/12 01:07:47;;;;;;;2.50;2.30;;;;;;;29.86;35.84;101461.88;5000663;28;98354;-73
2023/06/12 01:10:28;;;;;;;2.58;2.20;;;;;;;29.85;35.56;101454.63;5007729;28;98120;-73
2023/06/12 01:12:57;;;;;;;2.60;2.40;;;;;;;29.84;35.86;101452.94;4994745;28;96809;-73
2023/06/12 01:15:24;;;;;;;2.40;2.20;;;;;;;29.85;35.71;101454.63;5006055;28;97833;-73
2023/06/12 01:17:51;;;;;;;2.50;2.30;;;;;;;29.85;35.73;101461.03;5007148;28;100175;-72
2023/06/12 01:20:18;;;;;;;3.28;2.50;;;;;;;29.85;35.48;101458.25;5008160;28;96787;-73
2023/06/12 01:23:00;;;;;;;2.58;2.38;;;;;;;29.85;35.42;101455.47;5007451;28;96546;-73
2023/06/12 01:25:27;;;;;;;2.42;2.22;;;;;;;29.84;35.67;101458.47;5005765;28;99349;-73
2023/06/12 01:28:15;;;;;;;2.40;2.20;;;;;;;29.85;35.62;101471.25;5007064;28;96767;-73
2023/06/12 01:31:20;;;;;;;2.40;2.20;;;;;;;29.84;35.69;101464.84;4992535;28;96894;-73
2023/06/12 01:34:20;;;;;;;2.92;2.40;;;;;;;29.82;35.84;101460.59;4986959;28;97030;-73
2023/06/12 01:36:55;;;;;;;2.60;2.30;;;;;;;29.81;35.69;101461.69;5006004;28;97459;-73
2023/06/12 01:39:23;;;;;;;;;;;;;;;29.76;35.83;101461.50;5000301;28;97223;-72
2023/06/12 01:41:50;;;;;;;2.58;2.35;;;;;;;29.76;35.64;101472.56;5006548;28;96720;-73
2023/06/12 01:44:21;;;;;;;2.50;2.28;;;;;;;29.78;35.59;101465.75;4990290;28;96792;-73
2023/06/12 01:46:48;;;;;;;2.88;2.13;;;;;;;29.79;35.54;101472.97;4989733;28;97060;-73
2023/06/12 01:49:15;;;;;;;2.35;2.15;;;;;;;29.79;35.77;101461.91;5005568;28;97276;-73
2023/06/12 01:51:44;;;;;;;2.60;2.40;;;;;;;29.80;35.52;101462.75;5006373;28;96826;-73
2023/06/12 01:54:10;;;;;;;2.97;2.67;;;;;;;29.80;36.10;101463.59;5005495;28;96991;-73
2023/06/12 01:56:37;;;;;;;2.97;2.53;;;;;;;29.81;35.80;101464.44;5006572;28;96713;-73
2023/06/12 01:59:04;;;;;;;2.80;2.33;;;;;;;29.81;35.40;101461.69;5006320;28;96842;-73
2023/06/12 02:01:35;;;;;;;2.70;2.50;;;;;;;29.81;35.59;101475.53;5005683;28;96677;-73
2023/06/12 02:04:02;;;;;;;2.80;2.38;;;;;;;29.81;35.73;101468.06;5004320;28;96967;-73
2023/06/12 02:06:29;;;;;;;2.60;2.40;;;;;;;29.80;35.41;101469.13;5007621;28;97067;-73
2023/06/12 02:08:56;;;;;;;2.75;2.50;;;;;;;29.81;35.44;101470.00;5001571;28;98189;-73
2023/06/12 02:11:23;;;;;;;2.63;2.38;;;;;;;29.81;35.57;101464.44;4999996;28;97516;-73
2023/06/12 02:13:50;;;;;;;2.60;2.40;;;;;;;29.81;35.75;101461.69;5005370;28;96933;-73
2023/06/12 02:16:21;;;;;;;2.58;2.38;;;;;;;29.81;35.64;101461.69;5007006;28;97399;-73
2023/06/12 02:18:48;;;;;;;2.60;2.40;;;;;;;29.80;35.62;101463.59;5001701;28;96887;-73
2023/06/12 02:21:15;;;;;;;2.47;2.28;;;;;;;29.80;35.44;101462.75;5001431;28;96656;-73
2023/06/12 02:23:42;;;;;;;2.50;2.30;;;;;;;29.80;35.61;101462.75;5005757;28;96974;-73
2023/06/12 02:26:09;;;;;;;2.42;2.22;;;;;;;29.79;35.67;101461.91;5004653;28;99602;-73
2023/06/12 02:28:40;;;;;;;2.15;2.00;;;;;;;29.79;35.67;101461.06;5005675;28;98336;-73
2023/06/12 02:31:07;;;;;;;2.75;2.55;;;;;;;29.78;35.47;101460.19;5005655;28;97844;-73
2023/06/12 02:33:37;;;;;;;2.67;2.33;;;;;;;29.79;35.85;101461.06;4994985;28;97156;-72
2023/06/12 02:36:07;;;;;;;2.50;2.30;;;;;;;29.79;35.34;101463.81;5006685;28;96858;-73
2023/06/12 02:38:34;;;;;;;2.63;2.42;;;;;;;29.79;35.65;101463.81;5005376;28;100400;-73
2023/06/12 02:41:01;;;;;;;2.90;2.30;;;;;;;29.78;35.70;101462.13;5004955;28;97138;-72
2023/06/12 02:43:27;;;;;;;2.75;2.55;;;;;;;29.78;35.57;101459.34;5005235;28;96859;-73
2023/06/12 02:45:54;;;;;;;3.03;2.63;;;;;;;29.78;35.65;101456.59;5005839;28;98542;-73
2023/06/12 02:48:23;;;;;;;2.42;2.20;;;;;;;29.78;35.58;101468.50;5005088;28;96826;-73
2023/06/12 02:50:50;;;;;;;2.65;2.45;;;;;;;29.78;35.42;101460.19;5005674;28;96957;-73
2023/06/12 02:53:16;;;;;;;2.50;2.13;;;;;;;29.77;35.54;101464.03;5005413;28;97044;-73
2023/06/12 02:55:44;;;;;;;2.47;2.28;;;;;;;29.77;35.48;101461.28;4992894;28;100112;-73
2023/06/12 02:58:11;;;;;;;2.58;2.38;;;;;;;29.78;35.63;101462.13;5005959;28;96761;-73
2023/06/12 03:00:38;;;;;;;2.70;2.38;;;;;;;29.78;35.39;101462.13;4980800;28;97341;-73
2023/06/12 03:03:05;;;;;;;2.97;2.70;;;;;;;29.76;35.60;101456.81;5000943;28;97517;-73
2023/06/12 03:05:31;;;;;;;2.67;2.47;;;;;;;29.77;35.93;101464.03;5004400;28;99313;-73
2023/06/12 03:07:58;;;;;;;2.45;2.25;;;;;;;29.76;35.48;101459.56;5004686;28;99603;-73
2023/06/12 03:10:25;;;;;;;2.80;2.53;;;;;;;29.75;35.54;101466.19;5002587;28;97267;-73
2023/06/12 03:12:51;;;;;;;2.20;2.00;;;;;;;29.75;35.43;101463.41;5004643;28;96707;-73
2023/06/12 03:15:18;;;;;;;3.83;2.40;;;;;;;29.76;35.66;101462.34;5004287;28;99038;-72
2023/06/12 03:17:45;;;;;;;2.60;2.40;;;;;;;29.76;35.46;101467.88;4986635;28;100869;-73
2023/06/12 03:20:14;;;;;;;2.92;2.63;;;;;;;29.75;35.58;101457.88;5005656;28;97282;-73
2023/06/12 03:22:41;;;;;;;3.47;2.40;;;;;;;29.76;35.38;101472.56;5008709;28;97081;-73
2023/06/12 03:25:10;;;;;;;2.45;2.25;;;;;;;29.75;35.52;101468.09;5009842;28;97422;-73
2023/06/12 03:27:37;;;;;;;2.40;2.20;;;;;;;29.75;35.50;101471.72;5019894;28;97590;-73
2023/06/12 03:30:05;;;;;;;2.72;2.53;;;;;;;29.75;35.57;101468.94;5001627;28;96787;-73
2023/06/12 03:32:31;;;;;;;2.38;2.17;;;;;;;29.75;35.48;101465.34;5008705;28;96761;-73
2023/06/12 03:35:01;;;;;;;2.42;2.22;;;;;;;29.74;35.47;101464.47;5007790;28;96873;-73
2023/06/12 03:37:28;;;;;;;3.00;2.70;;;;;;;29.73;35.59;101466.41;5007807;28;100055;-73
2023/06/12 03:39:58;;;;;;;2.33;2.13;;;;;;;29.73;35.63;101466.41;5008187;28;96747;-73
2023/06/12 03:42:25;;;;;;;2.47;2.28;;;;;;;29.73;35.67;101462.78;5008449;28;96666;-73
2023/06/12 03:44:55;;;;;;;2.80;2.50;;;;;;;29.73;35.42;101471.94;5008352;28;96753;-73
2023/06/12 03:47:23;;;;;;;2.50;2.30;;;;;;;29.73;35.58;101471.94;5008834;28;96726;-73
2023/06/12 03:49:51;;;;;;;2.80;2.50;;;;;;;29.73;35.32;101474.72;5008013;28;97243;-73
2023/06/12 03:52:18;;;;;;;2.40;2.20;;;;;;;29.73;35.51;101473.88;5008493;28;96883;-73
2023/06/12 03:54:45;;;;;;;2.67;2.47;;;;;;;29.73;35.58;101477.47;5008092;28;98916;-73
2023/06/12 03:57:12;;;;;;;2.40;2.20;;;;;;;29.72;35.38;101478.50;5008458;28;97072;-73
2023/06/12 03:59:38;;;;;;;2.35;2.15;;;;;;;29.73;35.53;101479.41;5008104;28;96587;-73
2023/06/12 04:02:05;;;;;;;2.53;2.33;;;;;;;29.72;35.58;101481.28;5009891;28;96859;-73
2023/06/12 04:04:32;;;;;;;2.55;2.33;;;;;;;29.72;35.65;101489.59;5007216;28;99079;-73
2023/06/12 04:06:59;;;;;;;2.60;2.40;;;;;;;29.73;35.48;101484.94;5008128;28;99299;-73
2023/06/12 04:09:26;;;;;;;2.58;2.38;;;;;;;29.72;35.56;101491.50;5009041;28;96811;-73
2023/06/12 04:11:54;;;;;;;2.42;2.22;;;;;;;29.72;35.67;101489.59;5008715;28;96975;-73
2023/06/12 04:14:21;;;;;;;2.33;2.13;;;;;;;29.73;35.53;101484.94;5007708;28;100883;-73
2023/06/12 04:16:48;;;;;;;2.40;2.20;;;;;;;29.73;35.53;101490.47;5007810;28;97532;-72
2023/06/12 04:19:16;;;;;;;2.20;2.00;;;;;;;29.73;35.61;101496.00;5007089;28;97096;-73
2023/06/12 04:21:43;;;;;;;2.70;2.40;;;;;;;29.72;35.53;101491.50;5008480;28;97065;-72
2023/06/12 04:24:15;;;;;;;2.40;2.20;;;;;;;29.73;35.52;101496.84;5008893;28;96993;-73
2023/06/12 04:26:44;;;;;;;2.58;2.38;;;;;;;29.72;35.36;101497.91;5007864;28;97636;-73
2023/06/12 04:29:12;;;;;;;2.53;2.33;;;;;;;29.73;35.65;101490.47;5007352;28;96925;-72
2023/06/12 04:31:39;;;;;;;2.50;2.30;;;;;;;29.72;35.56;101500.66;5006830;28;96733;-73
2023/06/12 04:34:07;;;;;;;2.30;2.10;;;;;;;29.72;35.50;101497.03;5002750;28;97581;-73
2023/06/12 04:36:37;;;;;;;2.33;2.13;;;;;;;29.73;35.49;101498.78;5003926;28;97183;-73
2023/06/12 04:39:05;;;;;;;2.50;2.30;;;;;;;29.72;35.37;101497.91;5007107;28;97551;-72
2023/06/12 04:41:33;;;;;;;2.60;2.17;;;;;;;29.72;35.54;101495.13;5009758;28;96859;-72
2023/06/12 04:44:00;;;;;;;2.78;2.45;;;;;;;29.72;35.39;101500.66;5006157;28;96710;-73
2023/06/12 04:46:32;;;;;;;2.58;2.22;;;;;;;29.72;35.44;101494.28;5007021;28;97477;-73
2023/06/12 04:49:00;;;;;;;2.40;2.20;;;;;;;29.73;35.45;101490.47;5023471;27;96782;-73
2023/06/12 04:51:27;;;;;;;2.53;2.33;;;;;;;29.73;35.39;101490.47;4990261;28;97057;-72
2023/06/12 04:53:55;;;;;;;2.20;2.00;;;;;;;29.73;35.50;101496.84;4994470;28;96905;-73
2023/06/12 04:56:22;;;;;;;2.50;2.30;;;;;;;29.72;35.31;101489.59;4988226;28;100446;-73
2023/06/12 04:58:50;;;;;;;2.22;2.03;;;;;;;29.73;35.20;101490.47;4990497;28;97300;-72
2023/06/12 05:01:19;;;;;;;2.45;2.25;;;;;;;29.74;35.46;101483.88;5007348;28;96763;-73
2023/06/12 05:03:46;;;;;;;2.40;2.20;;;;;;;29.74;35.33;101492.16;5006611;28;99713;-73
2023/06/12 05:06:13;;;;;;;4.30;2.70;;;;;;;29.73;35.53;101502.41;5008321;28;96827;-73
2023/06/12 05:08:41;;;;;;;2.60;2.40;;;;;;;29.75;35.39;101493.03;5007858;28;96629;-73
2023/06/12 05:11:07;;;;;;;2.65;2.17;;;;;;;29.73;35.53;101496.84;5006446;28;96725;-72
2023/06/12 05:13:35;;;;;;;2.40;2.20;;;;;;;29.75;35.18;101495.78;5006931;28;98879;-73
2023/06/12 05:16:01;;;;;;;2.60;2.40;;;;;;;29.74;34.90;101492.16;5006398;28;99924;-73
2023/06/12 05:18:28;;;;;;;2.40;2.20;;;;;;;29.73;35.50;101496.84;5006560;28;96777;-73
2023/06/12 05:20:59;;;;;;;2.47;2.28;;;;;;;29.75;35.66;101495.78;5007167;28;97002;-73
2023/06/12 05:23:25;;;;;;;2.38;2.17;;;;;;;29.74;35.54;101494.94;5006154;28;98648;-73
2023/06/12 05:25:52;;;;;;;2.05;1.90;;;;;;;29.76;35.46;101500.25;5008150;28;97516;-73
2023/06/12 05:28:19;;;;;;;2.60;2.40;;;;;;;29.74;35.47;101500.47;5006823;28;96687;-72
2023/06/12 05:30:47;;;;;;;2.45;2.22;;;;;;;29.75;35.43;101502.19;5005986;28;98525;-72
2023/06/12 05:33:16;;;;;;;2.35;2.15;;;;;;;29.76;35.59;101497.50;5006011;28;97725;-73
2023/06/12 05:35:43;;;;;;;2.80;2.50;;;;;;;29.76;35.17;101497.50;5005752;28;100132;-73
2023/06/12 05:38:10;;;;;;;2.67;2.45;;;;;;;29.76;35.27;101494.72;5006763;28;97172;-73
2023/06/12 05:40:38;;;;;;;2.65;2.13;;;;;;;29.76;35.33;101487.25;4990222;28;96894;-73
2023/06/12 05:43:05;;;;;;;2.35;2.15;;;;;;;29.75;35.42;101482.78;5005486;28;99764;-73
2023/06/12 05:45:32;;;;;;;2.47;2.28;;;;;;;29.76;35.27;101480.88;5005742;28;99406;-73
2023/06/12 05:48:02;;;;;;;2.47;2.28;;;;;;;29.76;35.21;101481.72;4990519;28;97433;-73
2023/06/12 05:50:29;;;;;;;2.20;2.00;;;;;;;29.77;35.33;101488.13;5006585;28;96945;-73
2023/06/12 05:52:55;;;;;;;2.22;2.03;;;;;;;29.76;35.37;101489.19;5007153;28;97537;-73
2023/06/12 05:55:22;;;;;;;2.58;2.38;;;;;;;29.76;35.55;101483.66;5006044;28;99069;-73
2023/06/12 05:57:49;;;;;;;2.47;2.28;;;;;;;29.78;35.40;101492.59;5007384;28;96666;-72
2023/06/12 06:00:21;;;;;;;2.40;2.15;;;;;;;29.77;35.47;101496.41;5006030;28;96965;-73
2023/06/12 06:02:51;;;;;;;2.25;1.90;;;;;;;29.77;35.34;101491.72;4989792;28;97036;-74
2023/06/12 06:05:30;;;;;;;2.92;2.38;;;;;;;29.77;35.33;101493.66;4998213;28;96945;-73
2023/06/12 06:08:03;;;;;;;2.22;2.08;;;;;;;29.77;35.69;101497.28;5002457;28;97228;-73
2023/06/12 06:10:31;;;;;;;2.50;2.20;;;;;;;29.77;35.26;101488.13;5006046;28;96818;-73
2023/06/12 06:12:57;;;;;;;2.63;2.17;;;;;;;29.78;35.30;101487.03;5006295;28;96831;-73
2023/06/12 06:15:26;;;;;;;2.38;2.17;;;;;;;29.77;35.34;101494.50;4996404;28;98443;-73
2023/06/12 06:17:53;;;;;;;2.53;2.33;;;;;;;29.78;35.37;101503.66;5005662;28;97188;-73
2023/06/12 06:20:20;;;;;;;2.40;2.20;;;;;;;29.77;35.25;101496.41;5007431;28;97209;-73
2023/06/12 06:22:47;;;;;;;2.45;2.25;;;;;;;29.78;35.37;101498.13;4988602;28;98409;-73
2023/06/12 06:25:15;;;;;;;2.72;2.50;;;;;;;29.79;35.30;101491.50;5005180;28;98879;-73
2023/06/12 06:27:42;;;;;;;3.53;2.30;;;;;;;29.78;35.09;101490.66;5005283;28;96832;-73
2023/06/12 06:30:09;;;;;;;2.15;1.95;;;;;;;29.79;35.35;101502.59;4988083;28;98210;-73
2023/06/12 06:32:36;;;;;;;2.40;2.20;;;;;;;29.78;35.23;101493.44;5005437;28;97736;-73
2023/06/12 06:35:03;;;;;;;2.40;2.20;;;;;;;29.79;35.32;101488.75;5005990;28;96631;-73
2023/06/12 06:37:30;;;;;;;2.60;2.40;;;;;;;29.80;35.35;101501.53;5006790;28;97115;-73
2023/06/12 06:39:57;;;;;;;2.17;1.98;;;;;;;29.80;35.20;101490.44;5004203;28;96824;-73
2023/06/12 06:42:23;;;;;;;2.45;2.25;;;;;;;29.80;35.20;101504.28;5005727;28;98979;-73
2023/06/12 06:45:01;;;;;;;2.40;2.20;;;;;;;29.78;35.40;101490.66;5004562;28;98637;-73
2023/06/12 06:47:28;;;;;;;2.45;2.25;;;;;;;29.79;35.32;101491.50;5005191;28;96599;-73
2023/06/12 06:49:56;;;;;;;2.30;2.10;;;;;;;29.79;35.23;101492.38;5005105;28;97010;-73
2023/06/12 06:52:23;;;;;;;2.45;2.25;;;;;;;29.81;35.25;101503.22;5004759;28;98659;-73
2023/06/12 06:54:49;;;;;;;2.40;2.20;;;;;;;29.80;35.19;101493.22;5005526;28;97233;-73
2023/06/12 06:57:17;;;;;;;2.45;2.25;;;;;;;29.80;35.12;101491.28;5004002;28;96855;-73
2023/06/12 06:59:43;;;;;;;2.35;2.15;;;;;;;29.81;35.28;101489.38;5004789;28;96643;-73
2023/06/12 07:02:10;;;;;;;2.55;2.35;;;;;;;29.81;35.12;101493.00;5005630;28;96914;-73
2023/06/12 07:04:37;;;;;;;2.50;2.30;;;;;;;29.82;35.17;101496.59;5004928;28;96826;-73
2023/06/12 07:07:05;;;;;;;2.72;2.40;;;;;;;29.81;35.23;101486.59;5005293;28;96740;-73
2023/06/12 07:09:31;;;;;;;2.50;2.30;;;;;;;29.82;35.27;101488.31;5004792;28;97095;-73
2023/06/12 07:11:58;;;;;;;2.58;2.30;;;;;;;29.82;35.19;101489.16;5003819;28;97297;-73
2023/06/12 07:14:25;;;;;;;2.50;2.30;;;;;;;29.82;35.52;101485.53;5004641;28;99382;-73
2023/06/12 07:16:51;;;;;;;3.00;2.70;;;;;;;29.83;35.24;101478.94;4993877;28;97123;-73
2023/06/12 07:19:18;;;;;;;2.28;2.08;;;;;;;29.82;35.33;101486.38;5005058;28;97082;-73
2023/06/12 07:21:44;;;;;;;2.85;2.50;;;;;;;29.84;35.18;101491.69;4992872;28;98426;-73
2023/06/12 07:24:12;;;;;;;2.50;2.22;;;;;;;29.83;35.11;101490.84;4975840;28;99028;-73
2023/06/12 07:26:38;;;;;;;2.75;2.20;;;;;;;29.84;35.15;101491.69;5005313;28;97503;-72
2023/06/12 07:29:05;;;;;;;2.50;2.30;;;;;;;29.83;35.11;101487.22;5005185;28;96711;-73
2023/06/12 07:31:32;;;;;;;2.40;2.20;;;;;;;29.84;35.20;101488.94;5004577;28;97671;-73
2023/06/12 07:34:00;;;;;;;2.40;2.20;;;;;;;29.84;35.11;101491.69;5004475;28;98926;-72
2023/06/12 07:36:28;;;;;;;2.42;2.22;;;;;;;29.83;34.93;101485.31;5005137;28;96761;-72
2023/06/12 07:38:55;;;;;;;2.80;2.55;;;;;;;29.84;34.87;101491.69;5004270;28;97317;-73
2023/06/12 07:41:22;;;;;;;3.20;2.33;;;;;;;29.85;34.88;101487.84;4995212;28;98548;-73
2023/06/12 07:43:48;;;;;;;2.67;2.47;;;;;;;29.84;35.12;101481.47;5003045;28;96768;-72
2023/06/12 07:46:46;;;;;;;2.50;2.30;;;;;;;29.85;35.01;101474.88;4990961;28;96772;-72
2023/06/12 07:49:17;;;;;;;2.72;2.47;;;;;;;29.83;34.93;101485.31;4992229;28;97275;-72
2023/06/12 07:51:44;;;;;;;2.67;2.40;;;;;;;29.84;35.29;101481.47;5005129;28;98060;-73
2023/06/12 07:54:12;;;;;;;2.65;2.38;;;;;;;29.84;34.76;101481.47;5004215;28;98564;-73
2023/06/12 07:56:40;;;;;;;2.58;2.38;;;;;;;29.85;34.89;101487.84;4993413;28;97135;-73
2023/06/12 07:59:11;;;;;;;2.78;2.20;;;;;;;29.86;34.81;101484.03;5008335;28;96825;-73
2023/06/12 08:01:45;;;;;;;2.72;2.53;;;;;;;29.85;34.88;101476.78;5003878;28;99573;-73
2023/06/12 08:04:15;;;;;;;2.67;2.47;;;;;;;29.84;35.05;101475.94;5005497;28;98874;-73
2023/06/12 08:06:44;;;;;;;2.60;2.40;;;;;;;29.86;34.95;101470.19;4996352;28;96846;-73
2023/06/12 08:09:11;;;;;;;2.97;2.30;;;;;;;29.86;34.97;101475.72;5008223;28;97320;-73
2023/06/12 08:11:39;;;;;;;4.70;2.60;;;;;;;29.87;34.87;101474.66;5007796;28;97473;-73
2023/06/12 08:14:08;;;;;;;2.72;2.40;;;;;;;29.86;35.03;101478.47;5006968;28;96991;-73
2023/06/12 08:16:35;;;;;;;2.45;2.25;;;;;;;29.87;34.89;101474.66;5020998;28;96917;-73
2023/06/12 08:19:02;;;;;;;3.28;2.60;;;;;;;29.86;35.15;101473.78;4991617;28;96621;-73
2023/06/12 08:21:33;;;;;;;2.78;2.58;;;;;;;29.86;35.00;101476.56;5008562;28;97206;-73
2023/06/12 08:24:00;;;;;;;2.53;2.33;;;;;;;29.87;34.77;101477.41;4991311;28;99860;-73
2023/06/12 08:26:28;;;;;;;2.83;2.58;;;;;;;29.87;34.99;101474.66;5007372;28;97058;-73
2023/06/12 08:28:57;;;;;;;2.85;2.10;;;;;;;29.87;34.96;101472.72;4998078;28;96759;-73
2023/06/12 08:31:29;;;;;;;2.72;2.42;;;;;;;29.86;34.81;101468.25;5007677;28;96829;-73
2023/06/12 08:33:56;;;;;;;2.55;2.35;;;;;;;29.87;34.86;101471.88;5006859;28;97094;-73
2023/06/12 08:36:23;;;;;;;2.58;2.38;;;;;;;29.87;34.97;101463.56;5007826;28;97740;-73
2023/06/12 08:38:49;;;;;;;3.10;2.80;;;;;;;29.88;34.77;101465.25;5007306;28;97848;-73
2023/06/12 08:41:19;;;;;;;2.97;2.55;;;;;;;29.88;34.72;101468.03;4991156;28;97037;-73
2023/06/12 08:43:47;;;;;;;2.60;2.40;;;;;;;29.87;34.66;101469.97;5007068;28;97329;-73
2023/06/12 08:46:19;;;;;;;2.30;2.10;;;;;;;29.88;34.87;101459.72;4981147;28;96727;-73
2023/06/12 08:48:47;;;;;;;2.55;2.35;;;;;;;29.88;34.51;101463.34;5007390;28;97002;-73
2023/06/12 08:51:15;;;;;;;2.55;2.35;;;;;;;29.88;34.87;101468.03;5007728;28;99772;-73
2023/06/12 08:53:42;;;;;;;2.40;2.20;;;;;;;29.88;34.76;101460.56;5006608;28;97937;-73
2023/06/12 08:56:10;;;;;;;2.90;2.60;;;;;;;29.89;34.60;101462.28;5007563;28;97881;-73
2023/06/12 08:58:37;;;;;;;3.08;2.47;;;;;;;29.88;34.71;101455.03;5024237;27;96975;-73
2023/06/12 09:01:06;;;;;;;3.17;2.30;;;;;;;29.89;34.64;101456.72;5007789;28;96898;-74
2023/06/12 09:03:36;;;;;;;2.70;2.50;;;;;;;29.89;34.62;101453.97;5006883;28;98672;-74
2023/06/12 09:06:05;;;;;;;2.53;2.30;;;;;;;29.90;34.74;101460.34;5008872;28;96803;-74
2023/06/12 09:08:34;;;;;;;2.50;2.30;;;;;;;29.89;34.77;101453.97;5007582;28;97339;-73
2023/06/12 09:11:01;;;;;;;3.00;2.70;;;;;;;29.90;34.67;101452.03;5007998;28;97886;-73
2023/06/12 09:13:39;;;;;;;3.30;3.00;;;;;;;29.91;34.80;101448.22;5007969;28;96903;-74
2023/06/12 09:16:10;;;;;;;3.08;2.42;;;;;;;29.90;34.76;101443.75;5007852;28;97083;-73
2023/06/12 09:18:48;;;;;;;3.08;2.38;;;;;;;29.91;34.81;101446.28;4996990;28;96921;-74
2023/06/12 09:21:15;;;;;;;2.85;2.60;;;;;;;29.90;34.67;101452.03;4989456;28;99982;-74
2023/06/12 09:23:45;;;;;;;2.60;2.33;;;;;;;29.91;34.56;101439.91;5001311;28;96736;-73
2023/06/12 09:26:15;;;;;;;2.60;2.40;;;;;;;29.91;34.73;101442.66;5007641;28;96814;-74
2023/06/12 09:28:43;;;;;;;3.15;2.85;;;;;;;29.90;34.73;101441.81;5007029;28;97174;-73
2023/06/12 09:31:10;;;;;;;3.92;2.67;;;;;;;29.91;34.65;101442.66;5008649;28;96764;-74
2023/06/12 09:33:40;;;;;;;3.10;2.58;;;;;;;29.91;34.64;101437.13;5008302;28;97194;-74
2023/06/12 09:36:10;;;;;;;3.00;2.70;;;;;;;29.91;34.51;101442.66;5008869;28;97254;-74
2023/06/12 09:38:37;;;;;;;3.10;2.80;;;;;;;29.91;34.58;101448.22;5008598;28;96702;-74
2023/06/12 09:41:07;;;;;;;2.60;2.40;;;;;;;29.92;34.62;101436.06;5008913;28;97948;-74
2023/06/12 09:43:34;;;;;;;2.83;2.63;;;;;;;29.91;34.56;101445.44;5007396;28;96748;-74
2023/06/12 09:46:03;;;;;;;2.40;2.20;;;;;;;29.91;34.59;101442.66;5008078;28;96704;-74
2023/06/12 09:48:38;;;;;;;3.10;2.50;;;;;;;29.94;34.60;101439.44;5006273;28;96868;-73
2023/06/12 09:51:23;;;;;;;3.13;2.60;;;;;;;29.90;34.74;101443.75;4998384;28;96876;-74
2023/06/12 09:53:55;;;;;;;3.28;2.47;;;;;;;29.91;34.59;101431.59;5006462;28;97337;-73
2023/06/12 09:56:23;;;;;;;3.63;2.80;;;;;;;29.90;34.51;101447.34;4998364;28;97089;-74
2023/06/12 09:58:51;;;;;;;2.78;2.35;;;;;;;29.93;34.49;101448.84;5007880;28;97257;-74
2023/06/12 10:01:19;;;;;;;3.67;3.00;;;;;;;29.91;34.74;101432.44;5007447;28;96785;-74
2023/06/12 10:03:50;;;;;;;2.83;2.55;;;;;;;29.92;34.44;101442.44;5006045;28;98034;-74
2023/06/12 10:06:18;;;;;;;2.72;2.53;;;;;;;29.92;34.40;101436.91;5007067;28;96850;-73
2023/06/12 10:08:48;;;;;;;2.70;2.45;;;;;;;29.93;34.53;101437.75;5005869;28;97184;-73
2023/06/12 10:11:15;;;;;;;3.20;2.30;;;;;;;29.93;34.45;101440.53;5007687;28;98303;-74
2023/06/12 10:13:42;;;;;;;3.00;2.22;;;;;;;29.93;34.45;101432.22;5007026;28;98743;-74
2023/06/12 10:16:09;;;;;;;2.47;2.28;;;;;;;29.93;34.44;101430.28;5007741;28;96634;-74
2023/06/12 10:18:37;;;;;;;3.03;2.25;;;;;;;29.93;34.39;101433.06;5005726;28;97493;-73
2023/06/12 10:21:05;;;;;;;3.10;2.63;;;;;;;29.94;34.35;101439.44;5007834;28;98123;-73
2023/06/12 10:23:33;;;;;;;2.60;2.40;;;;;;;29.94;34.47;101433.91;5007066;28;96767;-74
2023/06/12 10:26:03;;;;;;;3.42;2.45;;;;;;;29.93;34.45;101430.28;5007701;28;97293;-74
2023/06/12 10:28:31;;;;;;;3.00;2.47;;;;;;;29.93;34.40;101429.44;5006337;28;97850;-74
2023/06/12 10:31:16;;;;;;;2.60;2.40;;;;;;;29.95;34.34;101427.31;4988086;28;97473;-73
2023/06/12 10:34:02;;;;;;;2.75;2.53;;;;;;;29.93;34.36;101424.75;5007543;28;96624;-74
2023/06/12 10:36:41;;;;;;;2.63;2.42;;;;;;;29.93;34.27;101427.53;5006226;28;96692;-74
2023/06/12 10:39:19;;;;;;;3.08;2.63;;;;;;;29.93;34.39;101423.91;5006855;28;96882;-73
2023/06/12 10:41:59;;;;;;;2.80;2.60;;;;;;;29.93;34.39;101421.13;5006025;28;97481;-74
2023/06/12 10:44:39;;;;;;;3.33;2.78;;;;;;;29.94;34.30;101422.84;5006957;28;97194;-74
2023/06/12 10:47:19;;;;;;;3.05;2.75;;;;;;;29.94;34.24;101420.06;5007416;28;97119;-74
2023/06/12 10:50:02;;;;;;;3.03;2.45;;;;;;;29.93;34.46;101418.38;5007525;28;96659;-73
2023/06/12 10:52:29;;;;;;;2.92;2.63;;;;;;;29.92;34.48;101406.44;4994269;28;99204;-73
2023/06/12 10:55:31;;;;;;;2.90;2.60;;;;;;;29.93;34.39;101410.06;5004736;28;97104;-74
2023/06/12 10:58:00;;;;;;;2.53;2.33;;;;;;;29.91;34.24;101403.91;4988252;28;96650;-73
2023/06/12 11:00:34;;;;;;;2.58;2.13;;;;;;;29.94;34.58;101411.75;5000098;28;96947;-73
2023/06/12 11:03:12;;;;;;;2.38;2.10;;;;;;;29.93;34.50;101408.13;4995432;28;98065;-73
2023/06/12 11:05:49;;;;;;;2.60;2.35;;;;;;;29.94;34.55;101409.00;4997632;28;97004;-73
2023/06/12 11:08:16;;;;;;;2.30;2.10;;;;;;;29.93;34.56;101410.91;4979290;28;97215;-74
2023/06/12 11:10:43;;;;;;;3.03;2.80;;;;;;;29.93;34.58;101408.13;5005805;28;97218;-74
2023/06/12 11:13:10;;;;;;;2.67;2.47;;;;;;;29.94;34.44;101406.22;4992754;28;98783;-73
2023/06/12 11:15:44;;;;;;;2.50;2.30;;;;;;;29.95;34.54;101411.53;5005209;28;97066;-74
2023/06/12 11:18:13;;;;;;;2.45;2.25;;;;;;;29.95;34.46;101406.00;5012945;28;96705;-74
2023/06/12 11:20:40;;;;;;;3.20;2.15;;;;;;;29.95;34.29;101394.06;5006441;28;96835;-74
2023/06/12 11:23:07;;;;;;;2.38;2.17;;;;;;;29.95;34.38;101406.00;5004301;28;97482;-74
2023/06/12 11:25:42;;;;;;;2.60;2.40;;;;;;;29.96;34.37;101401.31;5006348;28;97458;-74
2023/06/12 11:28:09;;;;;;;2.50;2.30;;;;;;;29.96;34.33;101406.84;5005975;28;96947;-74
2023/06/12 11:30:36;;;;;;;2.50;2.30;;;;;;;29.96;34.29;101402.16;5005670;28;97140;-73
2023/06/12 11:33:16;;;;;;;2.65;2.10;;;;;;;29.97;34.46;101400.22;5004298;28;97212;-74